金門航空站 - ATIS

METAR RCBS 042130Z 20014KT 7000 SCT006 SCT045 BKN200 28/27 Q1005 NOSIG RMK A2969(D)=

站台狀態:Online
最後更新:2022-07-05 06:00:01